createdAt,value
2018-07-24T00:01:43.372Z,28.03
2018-07-24T00:04:11.797Z,29.23
2018-07-24T00:06:46.490Z,29.77
2018-07-24T00:09:14.903Z,28.20
2018-07-24T00:11:43.310Z,28.40
2018-07-24T00:14:11.783Z,30.03
2018-07-24T00:16:40.138Z,27.80
2018-07-24T00:19:08.562Z,27.73
2018-07-24T00:21:36.973Z,28.33
2018-07-24T00:24:05.660Z,26.97
2018-07-24T00:26:34.100Z,25.37
2018-07-24T00:29:02.502Z,25.90
2018-07-24T00:31:30.954Z,25.87
2018-07-24T00:33:59.357Z,25.33
2018-07-24T00:36:27.930Z,24.57
2018-07-24T00:38:56.345Z,24.80
2018-07-24T00:41:24.853Z,25.47
2018-07-24T00:43:53.385Z,26.23
2018-07-24T00:46:21.783Z,26.70
2018-07-24T00:48:50.194Z,26.03
2018-07-24T00:51:18.592Z,27.23
2018-07-24T00:53:47.028Z,26.63
2018-07-24T00:56:15.458Z,24.77
2018-07-24T00:58:43.884Z,25.77
2018-07-24T01:01:12.270Z,24.60
2018-07-24T01:03:40.675Z,24.93
2018-07-24T01:06:09.105Z,25.33
2018-07-24T01:08:37.543Z,23.97
2018-07-24T01:11:06.049Z,24.93
2018-07-24T01:13:34.616Z,24.27
2018-07-24T01:16:03.099Z,24.83
2018-07-24T01:18:31.596Z,25.30
2018-07-24T01:21:00.146Z,25.60
2018-07-24T01:23:28.650Z,26.10
2018-07-24T01:25:57.068Z,25.63
2018-07-24T01:28:25.458Z,24.80
2018-07-24T01:30:53.844Z,24.70
2018-07-24T01:33:22.256Z,24.97
2018-07-24T01:35:50.626Z,24.27
2018-07-24T01:38:19.030Z,24.03
2018-07-24T01:40:47.396Z,23.80
2018-07-24T01:43:15.874Z,24.23
2018-07-24T01:45:44.268Z,24.13
2018-07-24T01:48:12.725Z,23.23
2018-07-24T01:50:41.144Z,24.73
2018-07-24T01:53:09.613Z,24.47
2018-07-24T01:55:38.184Z,23.13
2018-07-24T01:58:06.638Z,24.50
2018-07-24T02:00:35.075Z,24.30
2018-07-24T02:03:03.505Z,25.07
2018-07-24T02:05:31.984Z,22.70
2018-07-24T02:08:00.419Z,24.27
2018-07-24T02:10:28.884Z,24.23
2018-07-24T02:12:57.313Z,23.33
2018-07-24T02:15:25.733Z,25.37
2018-07-24T02:17:54.130Z,22.73
2018-07-24T02:20:22.604Z,23.50
2018-07-24T02:22:51.032Z,24.47
2018-07-24T02:25:19.457Z,23.27
2018-07-24T02:27:47.829Z,23.00
2018-07-24T02:30:16.272Z,24.47
2018-07-24T02:32:44.713Z,25.00
2018-07-24T02:35:13.273Z,23.47
2018-07-24T02:37:41.700Z,24.97
2018-07-24T02:40:10.205Z,25.73
2018-07-24T02:42:38.618Z,25.37
2018-07-24T02:45:07.687Z,25.33
2018-07-24T02:47:36.188Z,27.10
2018-07-24T02:50:04.734Z,28.00
2018-07-24T02:52:32.888Z,27.77
2018-07-24T02:55:01.313Z,26.43
2018-07-24T02:57:29.770Z,29.00
2018-07-24T02:59:58.207Z,28.70
2018-07-24T03:02:26.661Z,29.43
2018-07-24T03:04:55.088Z,30.97
2018-07-24T03:07:23.519Z,33.50
2018-07-24T03:09:51.926Z,31.90
2018-07-24T03:12:20.461Z,30.43
2018-07-24T03:14:48.864Z,31.40
2018-07-24T03:17:17.374Z,30.97
2018-07-24T03:19:45.811Z,29.47
2018-07-24T03:22:14.249Z,27.93
2018-07-24T03:24:42.628Z,27.80
2018-07-24T03:27:11.073Z,28.57
2018-07-24T03:29:39.465Z,29.43
2018-07-24T03:32:07.855Z,28.80
2018-07-24T03:34:36.259Z,27.83
2018-07-24T03:37:04.806Z,30.50
2018-07-24T03:39:33.268Z,27.73
2018-07-24T03:42:01.614Z,28.77
2018-07-24T03:44:30.005Z,28.03
2018-07-24T03:46:58.457Z,31.67
2018-07-24T03:49:26.942Z,33.80
2018-07-24T03:51:55.458Z,36.37
2018-07-24T03:54:23.978Z,35.90
2018-07-24T03:56:52.768Z,35.23
2018-07-24T03:59:21.276Z,35.37
2018-07-24T04:01:49.773Z,34.37
2018-07-24T04:04:18.531Z,32.07
2018-07-24T04:06:46.974Z,31.07
2018-07-24T04:09:15.411Z,28.20
2018-07-24T04:11:43.899Z,27.63
2018-07-24T04:14:12.422Z,30.00
2018-07-24T04:16:40.797Z,31.70
2018-07-24T04:19:09.233Z,32.03
2018-07-24T04:21:37.692Z,33.47
2018-07-24T04:24:06.157Z,32.03
2018-07-24T04:26:34.591Z,31.63
2018-07-24T04:29:03.133Z,36.43
2018-07-24T04:31:31.606Z,32.47
2018-07-24T04:33:59.982Z,30.60
2018-07-24T04:36:28.440Z,33.40
2018-07-24T04:38:56.862Z,29.47
2018-07-24T04:41:24.991Z,32.67
2018-07-24T04:43:53.401Z,27.97
2018-07-24T04:46:21.838Z,28.47
2018-07-24T04:48:50.224Z,28.83
2018-07-24T04:51:18.682Z,27.33
2018-07-24T04:53:47.104Z,28.20
2018-07-24T04:56:15.573Z,26.97
2018-07-24T04:58:43.960Z,26.90
2018-07-24T05:01:12.364Z,25.67
2018-07-24T05:03:40.808Z,24.77
2018-07-24T05:06:09.266Z,21.90
2018-07-24T05:08:37.783Z,22.37
2018-07-24T05:11:06.497Z,21.50
2018-07-24T05:13:41.614Z,21.50
2018-07-24T05:16:10.257Z,21.17
2018-07-24T05:18:38.736Z,21.77
2018-07-24T05:21:07.338Z,20.67
2018-07-24T05:23:35.812Z,21.47
2018-07-24T05:26:04.198Z,21.93
2018-07-24T05:28:32.645Z,21.70
2018-07-24T05:31:01.121Z,20.40
2018-07-24T05:33:29.580Z,21.33
2018-07-24T05:35:58.123Z,20.10
2018-07-24T05:38:26.625Z,21.00
2018-07-24T05:40:55.063Z,19.20
2018-07-24T05:43:23.501Z,20.07
2018-07-24T05:45:51.977Z,18.87
2018-07-24T05:48:20.429Z,18.37
2018-07-24T05:50:49.021Z,17.47
2018-07-24T05:53:17.544Z,17.50
2018-07-24T05:55:46.118Z,17.17
2018-07-24T05:58:14.603Z,16.77
2018-07-24T06:00:43.096Z,16.70
2018-07-24T06:03:11.566Z,15.87
2018-07-24T06:05:40.103Z,15.97
2018-07-24T06:08:08.536Z,15.80
2018-07-24T06:10:37.083Z,16.17
2018-07-24T06:13:05.576Z,14.83
2018-07-24T06:15:33.715Z,14.63
2018-07-24T06:18:02.209Z,15.33
2018-07-24T06:20:30.590Z,14.63
2018-07-24T06:22:59.018Z,15.30
2018-07-24T06:25:27.457Z,14.07
2018-07-24T06:27:56.133Z,15.03
2018-07-24T06:30:24.746Z,13.20
2018-07-24T06:32:53.246Z,12.60
2018-07-24T06:35:21.740Z,13.73
2018-07-24T06:37:50.307Z,14.27
2018-07-24T06:40:18.856Z,13.77
2018-07-24T06:42:47.303Z,13.80
2018-07-24T06:45:15.801Z,13.60
2018-07-24T06:47:44.296Z,14.63
2018-07-24T06:50:12.742Z,13.67
2018-07-24T06:52:41.127Z,13.23
2018-07-24T06:55:09.604Z,12.77
2018-07-24T06:57:38.000Z,14.00
2018-07-24T07:00:06.506Z,14.23
2018-07-24T07:02:34.687Z,14.67
2018-07-24T07:05:03.269Z,13.87
2018-07-24T07:07:31.851Z,14.90
2018-07-24T07:10:00.396Z,13.43
2018-07-24T07:12:28.889Z,14.27
2018-07-24T07:14:57.496Z,14.13
2018-07-24T07:17:25.973Z,12.83
2018-07-24T07:19:54.707Z,12.77
2018-07-24T07:22:23.215Z,13.17
2018-07-24T07:24:51.616Z,14.27
2018-07-24T07:27:20.062Z,15.00
2018-07-24T07:29:48.461Z,14.00
2018-07-24T07:32:16.956Z,15.90
2018-07-24T07:34:45.391Z,14.67
2018-07-24T07:37:13.807Z,15.17
2018-07-24T07:39:42.194Z,14.20
2018-07-24T07:42:10.996Z,13.47
2018-07-24T07:44:39.594Z,14.30
2018-07-24T07:47:08.072Z,13.77
2018-07-24T07:49:36.549Z,13.53
2018-07-24T07:52:05.293Z,14.70
2018-07-24T07:54:33.820Z,13.80
2018-07-24T07:57:02.258Z,14.50
2018-07-24T07:59:30.861Z,13.87
2018-07-24T08:01:59.385Z,13.93
2018-07-24T08:04:27.854Z,13.07
2018-07-24T08:06:56.592Z,15.10
2018-07-24T08:09:25.178Z,14.10
2018-07-24T08:11:53.745Z,14.37
2018-07-24T08:14:22.408Z,15.10
2018-07-24T08:16:50.955Z,15.10
2018-07-24T08:19:19.455Z,14.20
2018-07-24T08:21:47.954Z,14.83
2018-07-24T08:24:16.402Z,14.33
2018-07-24T08:26:44.853Z,13.87
2018-07-24T08:29:13.333Z,14.00
2018-07-24T08:31:42.101Z,14.10
2018-07-24T08:34:10.535Z,13.80
2018-07-24T08:36:39.014Z,13.37
2018-07-24T08:39:09.545Z,13.27
2018-07-24T08:41:37.937Z,13.60
2018-07-24T08:44:06.361Z,13.13
2018-07-24T08:46:34.816Z,11.77
2018-07-24T08:49:03.374Z,12.97
2018-07-24T08:51:32.208Z,13.57
2018-07-24T08:54:00.974Z,12.47
2018-07-24T08:56:29.166Z,12.47
2018-07-24T08:58:57.786Z,12.10
2018-07-24T09:01:26.242Z,12.17
2018-07-24T09:03:54.759Z,12.40
2018-07-24T09:06:23.351Z,13.50
2018-07-24T09:08:52.124Z,11.77
2018-07-24T09:11:20.556Z,11.83
2018-07-24T09:13:49.124Z,11.37
2018-07-24T09:16:17.709Z,12.63
2018-07-24T09:18:46.111Z,11.95
2018-07-24T09:21:14.540Z,13.10
2018-07-24T09:23:42.977Z,12.97
2018-07-24T09:26:11.469Z,12.27
2018-07-24T09:28:39.947Z,12.70
2018-07-24T09:31:08.419Z,11.63
2018-07-24T09:33:38.225Z,11.57
2018-07-24T09:36:06.725Z,12.58
2018-07-24T09:38:35.131Z,12.88
2018-07-24T09:41:03.687Z,12.13
2018-07-24T09:43:32.236Z,13.70
2018-07-24T09:46:00.762Z,12.93
2018-07-24T09:48:29.205Z,12.60
2018-07-24T09:50:57.701Z,15.70
2018-07-24T09:53:26.168Z,13.63
2018-07-24T09:55:55.487Z,13.57
2018-07-24T09:58:23.953Z,14.37
2018-07-24T10:00:57.546Z,13.63
2018-07-24T10:03:25.996Z,12.83
2018-07-24T10:05:54.413Z,13.47
2018-07-24T10:08:22.838Z,13.27
2018-07-24T10:10:51.480Z,14.30
2018-07-24T10:13:20.025Z,13.07
2018-07-24T10:15:48.376Z,11.50
2018-07-24T10:18:16.802Z,12.88
2018-07-24T10:20:45.326Z,11.18
2018-07-24T10:23:13.912Z,11.80
2018-07-24T10:25:42.423Z,10.38
2018-07-24T10:28:10.940Z,10.60
2018-07-24T10:30:39.433Z,9.27
2018-07-24T10:33:08.005Z,12.13
2018-07-24T10:35:36.402Z,12.30
2018-07-24T10:38:04.873Z,12.40
2018-07-24T10:40:33.348Z,11.67
2018-07-24T10:43:01.829Z,11.70
2018-07-24T10:45:30.200Z,11.07
2018-07-24T10:47:58.611Z,10.37
2018-07-24T10:50:27.101Z,12.17
2018-07-24T10:52:55.641Z,10.93
2018-07-24T10:55:24.056Z,11.97
2018-07-24T10:57:52.667Z,11.50
2018-07-24T11:00:21.099Z,9.43
2018-07-24T11:02:49.613Z,10.80
2018-07-24T11:05:18.162Z,10.40
2018-07-24T11:07:46.683Z,9.78
2018-07-24T11:10:15.261Z,8.95
2018-07-24T11:12:43.661Z,8.60
2018-07-24T11:15:12.184Z,9.40
2018-07-24T11:17:40.569Z,8.60
2018-07-24T11:20:09.040Z,7.50
2018-07-24T11:22:37.624Z,8.80
2018-07-24T11:25:06.028Z,8.63
2018-07-24T11:27:34.473Z,9.10
2018-07-24T11:30:03.246Z,9.10
2018-07-24T11:32:32.182Z,8.63
2018-07-24T11:35:00.794Z,8.80
2018-07-24T11:37:29.447Z,8.65
2018-07-24T11:39:57.937Z,8.35
2018-07-24T11:42:26.795Z,7.22
2018-07-24T11:44:55.272Z,6.90
2018-07-24T11:47:23.785Z,7.85
2018-07-24T11:49:52.318Z,7.47
2018-07-24T11:52:20.825Z,7.93
2018-07-24T11:54:49.278Z,7.67
2018-07-24T11:57:17.788Z,7.90
2018-07-24T11:59:46.264Z,8.63
2018-07-24T12:02:14.717Z,7.90
2018-07-24T12:04:43.166Z,8.03
2018-07-24T12:07:11.710Z,7.60
2018-07-24T12:09:40.152Z,7.42
2018-07-24T12:12:08.569Z,7.83
2018-07-24T12:14:37.033Z,7.33
2018-07-24T12:17:05.468Z,7.87
2018-07-24T12:19:34.063Z,7.93
2018-07-24T12:22:02.529Z,7.13
2018-07-24T12:24:31.009Z,7.23
2018-07-24T12:26:59.470Z,7.30
2018-07-24T12:29:27.948Z,7.83
2018-07-24T12:31:56.515Z,8.73
2018-07-24T12:34:24.918Z,8.47
2018-07-24T12:36:53.526Z,8.23
2018-07-24T12:39:21.997Z,7.33
2018-07-24T12:41:50.457Z,8.20
2018-07-24T12:44:18.926Z,7.67
2018-07-24T12:46:47.332Z,7.27
2018-07-24T12:49:15.784Z,7.90
2018-07-24T12:51:44.325Z,7.23
2018-07-24T12:54:12.833Z,6.83
2018-07-24T12:56:41.348Z,6.63
2018-07-24T12:59:09.830Z,6.77
2018-07-24T13:01:38.249Z,6.53
2018-07-24T13:04:06.798Z,6.30
2018-07-24T13:06:35.160Z,5.77
2018-07-24T13:09:04.083Z,6.33
2018-07-24T13:11:32.599Z,6.93
2018-07-24T13:14:01.076Z,6.73
2018-07-24T13:16:29.614Z,6.28
2018-07-24T13:18:57.776Z,7.10
2018-07-24T13:21:26.246Z,7.20
2018-07-24T13:23:54.729Z,6.92
2018-07-24T13:26:23.227Z,7.35
2018-07-24T13:28:51.391Z,6.87
2018-07-24T13:31:19.862Z,7.30
2018-07-24T13:33:48.585Z,7.93
2018-07-24T13:36:17.048Z,7.13
2018-07-24T13:38:45.459Z,8.23
2018-07-24T13:41:14.149Z,7.90
2018-07-24T13:43:42.587Z,7.57
2018-07-24T13:46:11.038Z,7.33
2018-07-24T13:48:39.494Z,7.40
2018-07-24T13:51:08.056Z,6.77
2018-07-24T13:53:36.502Z,6.80
2018-07-24T13:56:04.987Z,7.13
2018-07-24T13:58:33.405Z,6.20
2018-07-24T14:01:01.979Z,6.30
2018-07-24T14:03:30.392Z,6.20
2018-07-24T14:05:58.822Z,6.40
2018-07-24T14:08:27.361Z,7.23
2018-07-24T14:10:55.736Z,7.83
2018-07-24T14:13:24.286Z,7.70
2018-07-24T14:15:52.864Z,10.77
2018-07-24T14:18:21.385Z,7.60
2018-07-24T14:20:49.936Z,7.77
2018-07-24T14:23:18.451Z,8.23
2018-07-24T14:25:46.897Z,7.87
2018-07-24T14:28:15.399Z,6.70
2018-07-24T14:30:43.873Z,7.20
2018-07-24T14:33:12.384Z,6.60
2018-07-24T14:35:40.848Z,7.33
2018-07-24T14:38:09.317Z,6.90
2018-07-24T14:40:37.834Z,6.90
2018-07-24T14:43:06.414Z,6.90
2018-07-24T14:45:34.903Z,6.57
2018-07-24T14:48:03.413Z,6.23
2018-07-24T14:50:31.859Z,6.37
2018-07-24T14:53:00.347Z,7.00
2018-07-24T14:55:29.023Z,7.37
2018-07-24T14:57:57.572Z,7.00
2018-07-24T15:00:26.149Z,7.40
2018-07-24T15:02:55.068Z,7.10
2018-07-24T15:05:23.558Z,7.20
2018-07-24T15:07:52.040Z,6.40
2018-07-24T15:10:20.440Z,6.40
2018-07-24T15:12:48.937Z,6.73
2018-07-24T15:15:17.378Z,6.57
2018-07-24T15:17:45.899Z,6.17
2018-07-24T15:20:14.321Z,6.67
2018-07-24T15:22:42.858Z,6.37
2018-07-24T15:25:11.314Z,6.50
2018-07-24T15:27:39.958Z,6.47
2018-07-24T15:30:08.940Z,6.80
2018-07-24T15:32:37.425Z,6.20
2018-07-24T15:35:06.062Z,6.40
2018-07-24T15:37:34.610Z,6.43
2018-07-24T15:40:03.161Z,6.00
2018-07-24T15:42:31.663Z,6.13
2018-07-24T15:45:00.176Z,6.17
2018-07-24T15:47:28.590Z,6.93
2018-07-24T15:49:57.089Z,6.37
2018-07-24T15:52:25.545Z,6.70
2018-07-24T15:54:54.075Z,6.77
2018-07-24T15:57:22.554Z,7.30
2018-07-24T15:59:51.005Z,6.80
2018-07-24T16:02:19.521Z,6.83
2018-07-24T16:04:47.980Z,6.50
2018-07-24T16:07:16.431Z,7.00
2018-07-24T16:09:44.868Z,6.83
2018-07-24T16:12:13.294Z,7.07
2018-07-24T16:14:41.787Z,7.20
2018-07-24T16:17:10.677Z,7.47
2018-07-24T16:19:39.342Z,6.63
2018-07-24T16:22:08.755Z,7.17
2018-07-24T16:24:37.321Z,6.73
2018-07-24T16:27:05.744Z,7.27
2018-07-24T16:29:34.233Z,6.67
2018-07-24T16:32:05.614Z,7.50
2018-07-24T16:34:33.832Z,6.73
2018-07-24T16:37:02.584Z,7.03
2018-07-24T16:39:31.027Z,9.30
2018-07-24T16:41:59.523Z,6.50
2018-07-24T16:44:28.034Z,6.80
2018-07-24T16:46:56.635Z,7.27
2018-07-24T16:49:25.162Z,6.57
2018-07-24T16:51:53.611Z,6.10
2018-07-24T16:54:22.086Z,5.87
2018-07-24T16:56:50.642Z,6.17
2018-07-24T16:59:19.248Z,81.03
2018-07-24T17:01:47.750Z,20.10
2018-07-24T17:04:16.257Z,6.60
2018-07-24T17:06:45.204Z,7.67
2018-07-24T17:09:13.674Z,6.30
2018-07-24T17:11:42.171Z,6.23
2018-07-24T17:14:10.668Z,6.30
2018-07-24T17:16:39.165Z,6.83
2018-07-24T17:19:07.682Z,6.07
2018-07-24T17:21:36.266Z,6.47
2018-07-24T17:24:04.725Z,6.03
2018-07-24T17:26:33.244Z,6.27
2018-07-24T17:29:01.715Z,6.57
2018-07-24T17:31:30.217Z,6.50
2018-07-24T17:33:58.785Z,6.53
2018-07-24T17:36:27.331Z,6.10
2018-07-24T17:38:56.020Z,7.07
2018-07-24T17:41:24.558Z,6.90
2018-07-24T17:43:53.072Z,6.50
2018-07-24T17:46:21.663Z,7.03
2018-07-24T17:48:50.275Z,7.00
2018-07-24T17:51:18.935Z,6.30
2018-07-24T17:53:47.464Z,5.97
2018-07-24T17:56:16.149Z,7.00
2018-07-24T17:58:44.705Z,6.83
2018-07-24T18:01:13.205Z,6.53
2018-07-24T18:03:41.650Z,6.13
2018-07-24T18:06:10.193Z,6.30
2018-07-24T18:08:38.976Z,6.07
2018-07-24T18:11:07.607Z,6.60
2018-07-24T18:13:42.356Z,6.70
2018-07-24T18:16:11.299Z,6.77
2018-07-24T18:18:40.025Z,6.83
2018-07-24T18:21:08.229Z,6.43
2018-07-24T18:23:37.102Z,6.83
2018-07-24T18:26:05.798Z,6.90
2018-07-24T18:28:34.306Z,13.47
2018-07-24T18:31:02.759Z,7.00
2018-07-24T18:33:31.427Z,6.93
2018-07-24T18:36:00.041Z,6.93
2018-07-24T18:38:28.593Z,6.20
2018-07-24T18:40:57.132Z,7.17
2018-07-24T18:43:25.722Z,7.17
2018-07-24T18:45:54.310Z,7.67
2018-07-24T18:48:22.926Z,8.23
2018-07-24T18:50:52.114Z,9.50
2018-07-24T18:53:20.938Z,13.07
2018-07-24T18:55:49.483Z,10.33
2018-07-24T18:58:18.093Z,9.10
2018-07-24T19:00:46.688Z,9.17
2018-07-24T19:03:15.276Z,9.60
2018-07-24T19:05:43.858Z,10.07
2018-07-24T19:08:12.645Z,9.17
2018-07-24T19:10:44.061Z,9.10
2018-07-24T19:13:12.982Z,11.17
2018-07-24T19:15:41.767Z,11.27
2018-07-24T19:18:10.685Z,12.07
2018-07-24T19:20:39.543Z,11.60
2018-07-24T19:23:08.349Z,10.43
2018-07-24T19:25:37.140Z,9.40
2018-07-24T19:28:06.111Z,9.83
2018-07-24T19:30:35.557Z,9.97
2018-07-24T19:33:04.314Z,10.53
2018-07-24T19:35:33.213Z,10.40
2018-07-24T19:38:02.276Z,10.23
2018-07-24T19:40:31.467Z,10.50
2018-07-24T19:43:00.952Z,10.43
2018-07-24T19:45:30.972Z,10.50
2018-07-24T19:48:00.200Z,9.93
2018-07-24T19:50:29.602Z,9.93
2018-07-24T19:52:58.517Z,10.67
2018-07-24T19:55:28.235Z,10.60
2018-07-24T19:57:56.757Z,11.13
2018-07-24T20:00:25.877Z,11.03
2018-07-24T20:02:55.186Z,11.70
2018-07-24T20:05:24.389Z,10.07
2018-07-24T20:07:53.530Z,11.40
2018-07-24T20:10:22.806Z,11.27
2018-07-24T20:12:51.844Z,11.20
2018-07-24T20:15:21.440Z,11.07
2018-07-24T20:17:50.137Z,10.30
2018-07-24T20:20:18.919Z,12.40
2018-07-24T20:22:47.956Z,11.83
2018-07-24T20:25:16.445Z,12.00
2018-07-24T20:27:45.042Z,12.00
2018-07-24T20:30:13.567Z,11.93
2018-07-24T20:32:41.777Z,11.13
2018-07-24T20:35:10.428Z,11.37
2018-07-24T20:37:38.886Z,11.73
2018-07-24T20:40:07.556Z,10.87
2018-07-24T20:42:36.281Z,10.63
2018-07-24T20:45:05.423Z,11.43
2018-07-24T20:47:34.462Z,11.07
2018-07-24T20:50:03.087Z,12.07
2018-07-24T20:52:31.790Z,11.87
2018-07-24T20:55:00.261Z,11.50
2018-07-24T20:57:28.719Z,12.33
2018-07-24T20:59:57.179Z,11.43
2018-07-24T21:02:25.721Z,11.23
2018-07-24T21:04:54.159Z,11.53
2018-07-24T21:07:22.610Z,11.77
2018-07-24T21:09:51.120Z,11.40
2018-07-24T21:12:19.591Z,11.00
2018-07-24T21:14:48.102Z,11.97
2018-07-24T21:17:16.644Z,11.00
2018-07-24T21:19:45.189Z,11.13
2018-07-24T21:22:13.728Z,12.00
2018-07-24T21:24:42.299Z,10.70
2018-07-24T21:27:10.484Z,11.57
2018-07-24T21:29:38.932Z,11.30
2018-07-24T21:32:07.100Z,12.00
2018-07-24T21:34:35.593Z,11.33
2018-07-24T21:37:04.037Z,12.13
2018-07-24T21:39:32.484Z,13.70
2018-07-24T21:42:00.982Z,13.37
2018-07-24T21:44:29.401Z,12.97
2018-07-24T21:46:57.855Z,12.27
2018-07-24T21:49:26.376Z,11.80
2018-07-24T21:51:54.852Z,12.27
2018-07-24T21:54:23.301Z,13.27
2018-07-24T21:56:51.997Z,13.07
2018-07-24T21:59:20.517Z,12.83
2018-07-24T22:01:49.052Z,12.97
2018-07-24T22:04:17.540Z,12.63
2018-07-24T22:06:45.976Z,12.87
2018-07-24T22:09:14.395Z,13.53
2018-07-24T22:11:42.864Z,13.13
2018-07-24T22:14:11.275Z,13.33
2018-07-24T22:16:39.805Z,12.57
2018-07-24T22:19:08.223Z,14.03
2018-07-24T22:21:36.751Z,14.10
2018-07-24T22:24:05.188Z,14.03
2018-07-24T22:26:33.642Z,15.07
2018-07-24T22:29:02.075Z,14.30
2018-07-24T22:31:30.532Z,14.10
2018-07-24T22:33:59.013Z,15.20
2018-07-24T22:36:27.532Z,14.40
2018-07-24T22:38:55.969Z,14.53
2018-07-24T22:41:24.406Z,14.67
2018-07-24T22:43:53.205Z,15.27
2018-07-24T22:46:21.668Z,15.07
2018-07-24T22:48:50.182Z,14.20
2018-07-24T22:51:18.679Z,14.57
2018-07-24T22:53:47.088Z,13.87
2018-07-24T22:56:15.547Z,14.00
2018-07-24T22:58:44.050Z,13.70
2018-07-24T23:01:12.706Z,14.50
2018-07-24T23:03:41.408Z,14.27
2018-07-24T23:06:10.085Z,13.57
2018-07-24T23:08:38.575Z,13.97
2018-07-24T23:11:07.091Z,13.57
2018-07-24T23:13:35.576Z,14.87
2018-07-24T23:16:04.059Z,13.43
2018-07-24T23:18:32.525Z,14.67
2018-07-24T23:21:01.140Z,14.60
2018-07-24T23:23:29.636Z,15.23
2018-07-24T23:25:58.043Z,15.23
2018-07-24T23:28:26.518Z,15.40
2018-07-24T23:30:54.658Z,16.33
2018-07-24T23:33:23.131Z,16.33
2018-07-24T23:35:51.653Z,16.60
2018-07-24T23:38:20.092Z,16.07
2018-07-24T23:40:48.539Z,16.03
2018-07-24T23:43:17.035Z,16.83
2018-07-24T23:45:45.504Z,16.40
2018-07-24T23:48:13.923Z,16.47
2018-07-24T23:50:42.369Z,14.80
2018-07-24T23:53:10.834Z,15.43
2018-07-24T23:55:39.307Z,16.17
2018-07-24T23:58:07.767Z,15.07
